Time;durP1;ratioP1;P1;durP2;ratioP2;P2;SDS_P1;SDS_P2;PMS_P1;PMS_P2;Temp;Humidity;BMP_temperature;BMP_pressure;BME280_temperature;BME280_humidity;BME280_pressure;Samples;Min_cycle;Max_cycle;Signal;HPM_P1;HPM_P2
2023/06/22 00:01:58;;;;;;;5.85;4.28;;;23.40;99.90;;;;;;7390654;19;20139;-76
2023/06/22 00:04:25;;;;;;;5.18;4.68;;;23.50;99.90;;;;;;7387617;19;20135;-75
2023/06/22 00:06:51;;;;;;;8.23;4.82;;;23.60;99.90;;;;;;7391129;19;20131;-76
2023/06/22 00:09:16;;;;;;;4.70;4.20;;;23.70;99.90;;;;;;7386595;19;20157;-75
2023/06/22 00:11:42;;;;;;;5.32;4.50;;;23.70;99.90;;;;;;7391986;19;20619;-76
2023/06/22 00:14:08;;;;;;;5.53;4.50;;;23.60;99.90;;;;;;7386043;19;20187;-76
2023/06/22 00:16:34;;;;;;;6.32;4.85;;;23.70;99.90;;;;;;7391341;19;20184;-75
2023/06/22 00:19:01;;;;;;;6.25;4.97;;;23.70;99.90;;;;;;7388515;19;20194;-75
2023/06/22 00:21:27;;;;;;;5.80;4.40;;;23.80;99.90;;;;;;7389280;19;20131;-76
2023/06/22 00:23:53;;;;;;;6.68;5.38;;;23.90;99.90;;;;;;7385139;19;20157;-76
2023/06/22 00:26:19;;;;;;;5.55;5.00;;;23.90;99.90;;;;;;7387248;19;20499;-76
2023/06/22 00:28:45;;;;;;;8.10;5.75;;;23.90;99.90;;;;;;7387650;19;20234;-77
2023/06/22 00:31:11;;;;;;;6.97;5.47;;;23.90;99.90;;;;;;7388135;19;20155;-77
2023/06/22 00:33:36;;;;;;;8.77;5.85;;;23.90;99.90;;;;;;7388680;19;20145;-76
2023/06/22 00:36:03;;;;;;;6.65;4.97;;;23.80;99.90;;;;;;7385652;19;20138;-77
2023/06/22 00:38:29;;;;;;;7.55;5.35;;;23.60;99.90;;;;;;7388107;19;20150;-76
2023/06/22 00:40:55;;;;;;;7.65;5.45;;;23.60;99.90;;;;;;7388738;19;20154;-76
2023/06/22 00:43:21;;;;;;;5.00;4.30;;;23.70;99.90;;;;;;7387623;19;20156;-77
2023/06/22 00:45:47;;;;;;;5.20;4.43;;;23.40;99.90;;;;;;7389058;19;20150;-75
2023/06/22 00:48:14;;;;;;;6.25;5.15;;;23.40;99.90;;;;;;7386456;19;21102;-75
2023/06/22 00:50:40;;;;;;;6.50;5.00;;;23.40;99.90;;;;;;7388124;19;20473;-76
2023/06/22 00:53:08;;;;;;;6.05;4.88;;;23.60;99.90;;;;;;7388691;19;20134;-76
2023/06/22 00:55:38;;;;;;;7.60;5.10;;;23.60;99.90;;;;;;7388246;19;20146;-76
2023/06/22 00:58:07;;;;;;;7.10;4.90;;;23.40;99.90;;;;;;7389080;19;20150;-76
2023/06/22 01:00:34;;;;;;;7.07;4.47;;;23.50;99.90;;;;;;7389987;19;20725;-75
2023/06/22 01:02:59;;;;;;;7.25;5.05;;;23.40;99.90;;;;;;7386850;19;20135;-76
2023/06/22 01:05:25;;;;;;;5.57;4.38;;;23.30;99.90;;;;;;7387298;19;20202;-76
2023/06/22 01:08:09;;;;;;;6.65;5.10;;;23.20;99.90;;;;;;7387599;19;20530;-75
2023/06/22 01:10:58;;;;;;;6.47;5.18;;;23.10;99.90;;;;;;7386816;19;20742;-76
2023/06/22 01:13:33;;;;;;;6.20;5.05;;;23.10;99.90;;;;;;7389314;19;20138;-77
2023/06/22 01:16:17;;;;;;;6.68;4.78;;;23.30;99.90;;;;;;7389049;19;20138;-76
2023/06/22 01:18:44;;;;;;;6.57;5.45;;;23.10;99.90;;;;;;7387246;19;20135;-77
2023/06/22 01:21:15;;;;;;;6.03;5.05;;;22.80;99.90;;;;;;7388169;19;20201;-76
2023/06/22 01:24:12;;;;;;;5.68;5.05;;;22.70;99.90;;;;;;7385474;19;20131;-76
2023/06/22 01:26:52;;;;;;;7.53;4.90;;;23.00;99.90;;;;;;7384324;19;20138;-75
2023/06/22 01:29:19;;;;;;;6.35;5.43;;;23.10;99.90;;;;;;7386113;19;20149;-76
2023/06/22 01:31:47;;;;;;;7.22;5.03;;;22.80;99.90;;;;;;7388396;19;20210;-74
2023/06/22 01:34:15;;;;;;;7.90;5.07;;;22.70;99.90;;;;;;7389809;19;20620;-76
2023/06/22 01:36:41;;;;;;;9.77;4.95;;;22.70;99.90;;;;;;7386565;19;20146;-76
2023/06/22 01:39:08;;;;;;;8.10;4.82;;;22.90;99.90;;;;;;7388781;19;20142;-75
2023/06/22 01:41:38;;;;;;;9.18;5.78;;;23.00;99.90;;;;;;7388771;19;20137;-75
2023/06/22 01:44:08;;;;;;;6.57;5.25;;;23.30;99.90;;;;;;7388389;19;20138;-76
2023/06/22 01:46:39;;;;;;;7.30;6.13;;;23.30;99.90;;;;;;7384568;19;20195;-77
2023/06/22 01:49:05;;;;;;;7.95;5.30;;;23.30;99.90;;;;;;7397994;19;20178;-76
2023/06/22 01:51:31;;;;;;;6.57;4.85;;;23.30;99.90;;;;;;7401541;19;20146;-75
2023/06/22 01:53:57;;;;;;;6.53;5.32;;;22.90;99.90;;;;;;7401142;19;20161;-76
2023/06/22 01:56:23;;;;;;;7.57;5.30;;;23.10;99.90;;;;;;7397215;19;20130;-76
2023/06/22 01:59:13;;;;;;;7.53;4.93;;;23.20;99.90;;;;;;7401186;19;20586;-76
2023/06/22 02:01:44;;;;;;;7.97;5.15;;;23.10;99.90;;;;;;7399110;19;20154;-75
2023/06/22 02:04:18;;;;;;;7.45;4.97;;;22.90;99.90;;;;;;7393097;19;20584;-76
2023/06/22 02:06:47;;;;;;;7.88;5.40;;;22.80;99.90;;;;;;7399251;19;20177;-76
2023/06/22 02:09:16;;;;;;;8.68;5.60;;;22.90;99.90;;;;;;7402715;19;20154;-77
2023/06/22 02:11:45;;;;;;;8.80;5.95;;;23.00;99.90;;;;;;7401555;19;20138;-76
2023/06/22 02:14:12;;;;;;;7.22;5.10;;;23.10;99.90;;;;;;7399876;19;20149;-76
2023/06/22 02:16:38;;;;;;;9.10;5.10;;;23.20;99.90;;;;;;7400126;19;20198;-76
2023/06/22 02:19:05;;;;;;;8.90;5.22;;;23.10;99.90;;;;;;7396089;19;20143;-76
2023/06/22 02:21:32;;;;;;;7.63;5.35;;;23.20;99.90;;;;;;7399723;19;20126;-77
2023/06/22 02:23:58;;;;;;;7.82;5.60;;;23.20;99.90;;;;;;7397591;19;20138;-75
2023/06/22 02:26:25;;;;;;;5.68;5.07;;;23.20;99.90;;;;;;7400164;19;20621;-76
2023/06/22 02:28:51;;;;;;;6.18;5.05;;;23.20;99.90;;;;;;7398189;19;20139;-76
2023/06/22 02:31:18;;;;;;;6.75;5.55;;;23.20;99.90;;;;;;7400143;19;20145;-75
2023/06/22 02:33:44;;;;;;;8.45;5.72;;;23.20;99.90;;;;;;7391670;19;20153;-76
2023/06/22 02:36:12;;;;;;;7.25;5.35;;;23.20;99.90;;;;;;7397481;19;20158;-76
2023/06/22 02:38:47;;;;;;;9.25;5.65;;;23.20;99.90;;;;;;7398676;19;20168;-76
2023/06/22 02:41:19;;;;;;;8.00;5.07;;;23.00;99.90;;;;;;7399865;19;20663;-76
2023/06/22 02:43:45;;;;;;;6.78;5.20;;;23.00;99.90;;;;;;7396516;19;20147;-77
2023/06/22 02:46:12;;;;;;;6.22;5.15;;;22.90;99.90;;;;;;7396832;19;20158;-76
2023/06/22 02:48:39;;;;;;;9.15;6.25;;;22.70;99.90;;;;;;7398839;19;20138;-75
2023/06/22 02:51:05;;;;;;;9.50;5.22;;;22.40;99.90;;;;;;7400914;19;20154;-75
2023/06/22 02:53:32;;;;;;;6.88;5.43;;;22.60;99.90;;;;;;7401918;19;20142;-76
2023/06/22 02:55:57;;;;;;;8.27;5.43;;;22.70;99.90;;;;;;7395308;19;20241;-76
2023/06/22 02:58:24;;;;;;;7.75;5.22;;;22.60;99.90;;;;;;7398378;19;20154;-76
2023/06/22 03:00:52;;;;;;;7.35;5.30;;;22.60;99.90;;;;;;7389465;19;20181;-75
2023/06/22 03:03:19;;;;;;;7.80;5.22;;;22.60;99.90;;;;;;7390078;19;20134;-76
2023/06/22 03:05:45;;;;;;;8.18;5.22;;;22.60;99.90;;;;;;7388989;19;20244;-76
2023/06/22 03:08:11;;;;;;;6.32;4.95;;;22.70;99.90;;;;;;7392446;19;20127;-76
2023/06/22 03:10:37;;;;;;;6.97;5.15;;;22.70;99.90;;;;;;7390922;19;20139;-75
2023/06/22 03:13:03;;;;;;;6.72;5.25;;;23.00;99.90;;;;;;7393418;19;20145;-77
2023/06/22 03:15:32;;;;;;;7.82;5.85;;;23.00;99.90;;;;;;7387316;19;20139;-75
2023/06/22 03:17:58;;;;;;;8.07;5.78;;;23.00;99.90;;;;;;7391169;19;20159;-75
2023/06/22 03:20:25;;;;;;;11.10;5.47;;;23.00;99.90;;;;;;7390256;19;20131;-76
2023/06/22 03:22:50;;;;;;;7.93;5.70;;;22.90;99.90;;;;;;7388827;19;20156;-76
2023/06/22 03:25:16;;;;;;;8.48;5.75;;;22.80;99.90;;;;;;7391188;19;20127;-77
2023/06/22 03:27:43;;;;;;;6.88;5.75;;;22.80;99.90;;;;;;7390401;19;20614;-75
2023/06/22 03:30:11;;;;;;;6.15;5.47;;;22.80;99.90;;;;;;7390973;19;20138;-76
2023/06/22 03:32:37;;;;;;;6.65;5.38;;;22.70;99.90;;;;;;7390353;19;20139;-74
2023/06/22 03:35:03;;;;;;;7.75;5.38;;;22.70;99.90;;;;;;7386904;19;20146;-76
2023/06/22 03:37:29;;;;;;;12.75;6.63;;;22.70;99.90;;;;;;7389850;19;20143;-75
2023/06/22 03:39:55;;;;;;;6.55;5.13;;;22.80;99.90;;;;;;7391631;19;20886;-75
2023/06/22 03:42:21;;;;;;;7.18;5.28;;;22.80;99.90;;;;;;7387568;19;20162;-76
2023/06/22 03:44:47;;;;;;;6.75;4.97;;;22.70;99.90;;;;;;7392004;19;20457;-75
2023/06/22 03:47:13;;;;;;;6.80;5.18;;;22.70;99.90;;;;;;7388529;19;20147;-76
2023/06/22 03:49:39;;;;;;;7.72;5.53;;;22.70;99.90;;;;;;7389243;19;20606;-75
2023/06/22 03:52:05;;;;;;;7.78;5.63;;;22.60;99.90;;;;;;7388136;19;20135;-75
2023/06/22 03:54:31;;;;;;;8.88;5.47;;;22.70;99.90;;;;;;7389466;19;20134;-75
2023/06/22 03:56:58;;;;;;;6.82;4.82;;;22.70;99.90;;;;;;7390521;19;20595;-76
2023/06/22 03:59:24;;;;;;;5.57;5.00;;;22.60;99.90;;;;;;7389878;19;20145;-76
2023/06/22 04:01:50;;;;;;;5.78;5.18;;;22.60;99.90;;;;;;7389934;19;20158;-74
2023/06/22 04:04:17;;;;;;;7.68;5.63;;;22.30;99.90;;;;;;7390650;19;20127;-75
2023/06/22 04:06:43;;;;;;;10.68;5.50;;;22.30;99.90;;;;;;7389747;19;20157;-77
2023/06/22 04:09:09;;;;;;;7.30;5.60;;;22.40;99.90;;;;;;7386438;19;20131;-75
2023/06/22 04:11:34;;;;;;;8.02;5.60;;;22.50;99.90;;;;;;7386911;19;20143;-75
2023/06/22 04:14:00;;;;;;;6.40;5.15;;;22.80;99.90;;;;;;7386834;19;20161;-75
2023/06/22 04:16:26;;;;;;;6.43;5.60;;;22.90;99.90;;;;;;7388134;19;20135;-75
2023/06/22 04:18:52;;;;;;;9.20;6.07;;;22.80;99.90;;;;;;7385960;19;20130;-76
2023/06/22 04:21:21;;;;;;;10.43;5.72;;;22.80;99.90;;;;;;7389334;19;20138;-75
2023/06/22 04:23:47;;;;;;;6.85;5.95;;;22.70;99.90;;;;;;7384457;19;20486;-76
2023/06/22 04:26:16;;;;;;;7.60;6.05;;;22.70;99.90;;;;;;7391567;19;20135;-76
2023/06/22 04:28:42;;;;;;;9.98;5.75;;;22.70;99.90;;;;;;7387556;19;20195;-75
2023/06/22 04:31:08;;;;;;;7.78;5.75;;;22.70;99.90;;;;;;7387436;19;20523;-75
2023/06/22 04:33:33;;;;;;;7.32;5.78;;;22.70;99.90;;;;;;7389615;19;20126;-76
2023/06/22 04:36:03;;;;;;;7.80;5.95;;;22.80;99.90;;;;;;7387238;19;20493;-75
2023/06/22 04:38:33;;;;;;;8.65;6.65;;;22.80;99.90;;;;;;7388204;19;20156;-75
2023/06/22 04:40:58;;;;;;;8.68;5.78;;;22.80;99.90;;;;;;7387795;19;20149;-74
2023/06/22 04:43:24;;;;;;;8.55;6.13;;;22.70;99.90;;;;;;7388673;19;20202;-75
2023/06/22 04:45:52;;;;;;;8.82;6.22;;;22.70;99.90;;;;;;7385003;19;20638;-76
2023/06/22 04:48:20;;;;;;;8.50;5.95;;;22.90;99.90;;;;;;7387933;19;20154;-76
2023/06/22 04:50:46;;;;;;;10.45;6.00;;;22.90;99.90;;;;;;7387566;19;20208;-75
2023/06/22 04:53:12;;;;;;;8.63;6.38;;;23.00;99.90;;;;;;7391957;19;20127;-75
2023/06/22 04:55:41;;;;;;;10.93;7.72;;;22.90;99.90;;;;;;7389237;19;20510;-75
2023/06/22 04:58:07;;;;;;;9.57;7.70;;;22.90;99.90;;;;;;7391067;19;20154;-76
2023/06/22 05:00:36;;;;;;;8.48;5.82;;;22.80;99.90;;;;;;7390485;19;20151;-76
2023/06/22 05:03:03;;;;;;;9.02;6.40;;;22.80;99.90;;;;;;7390008;19;20490;-76
2023/06/22 05:05:31;;;;;;;10.80;6.35;;;22.90;99.90;;;;;;7389946;19;20521;-75
2023/06/22 05:08:01;;;;;;;10.70;5.90;;;23.00;99.90;;;;;;7396602;19;20141;-76
2023/06/22 05:10:27;;;;;;;7.30;5.57;;;23.00;99.90;;;;;;7395036;19;20147;-75
2023/06/22 05:12:52;;;;;;;9.45;6.60;;;23.00;99.90;;;;;;7393258;19;20123;-76
2023/06/22 05:15:22;;;;;;;7.75;5.82;;;23.00;99.90;;;;;;7393819;19;20154;-75
2023/06/22 05:17:48;;;;;;;9.25;5.75;;;23.00;99.90;;;;;;7397387;19;20138;-77
2023/06/22 05:20:17;;;;;;;7.32;5.70;;;23.00;99.90;;;;;;7395543;19;20138;-76
2023/06/22 05:22:43;;;;;;;8.05;5.95;;;23.00;99.90;;;;;;7392145;19;20591;-76
2023/06/22 05:25:10;;;;;;;7.32;6.40;;;23.00;99.90;;;;;;7392890;19;20134;-75
2023/06/22 05:27:39;;;;;;;6.65;5.95;;;23.00;99.90;;;;;;7398644;19;20135;-75
2023/06/22 05:30:09;;;;;;;7.75;5.53;;;23.00;99.90;;;;;;7394597;19;20239;-76
2023/06/22 05:32:36;;;;;;;10.60;7.50;;;22.90;99.90;;;;;;7391522;19;20157;-76
2023/06/22 05:35:03;;;;;;;7.78;6.20;;;22.90;99.90;;;;;;7390497;19;20127;-75
2023/06/22 05:37:28;;;;;;;7.60;6.30;;;23.10;99.90;;;;;;7383990;19;20476;-76
2023/06/22 05:39:55;;;;;;;9.05;5.43;;;23.30;99.90;;;;;;7387767;19;20130;-74
2023/06/22 05:42:21;;;;;;;7.18;5.60;;;23.40;99.90;;;;;;7383106;19;20135;-76
2023/06/22 05:44:47;;;;;;;7.28;5.45;;;23.50;99.90;;;;;;7385590;19;20134;-76
2023/06/22 05:47:13;;;;;;;8.85;5.57;;;23.60;99.90;;;;;;7383821;19;20575;-75
2023/06/22 05:49:40;;;;;;;6.65;5.15;;;23.60;99.90;;;;;;7386469;19;20151;-75
2023/06/22 05:52:06;;;;;;;8.85;6.00;;;23.60;99.90;;;;;;7383917;19;20172;-77
2023/06/22 05:54:31;;;;;;;7.03;4.47;;;23.70;99.90;;;;;;7385952;19;20206;-76
2023/06/22 05:56:57;;;;;;;8.80;4.68;;;23.80;99.90;;;;;;7384537;19;20142;-74
2023/06/22 05:59:23;;;;;;;9.57;4.88;;;23.80;99.90;;;;;;7385411;19;20139;-76
2023/06/22 06:01:51;;;;;;;8.75;4.85;;;23.80;99.90;;;;;;7381540;19;20134;-74
2023/06/22 06:04:18;;;;;;;5.93;4.60;;;23.70;99.90;;;;;;7384521;19;20122;-75
2023/06/22 06:06:44;;;;;;;7.07;4.63;;;23.80;99.90;;;;;;7384665;19;20560;-75
2023/06/22 06:09:11;;;;;;;6.82;4.63;;;23.80;99.90;;;;;;7385195;19;20135;-75
2023/06/22 06:11:37;;;;;;;7.78;4.13;;;23.90;99.90;;;;;;7385459;19;20146;-75
2023/06/22 06:14:03;;;;;;;7.90;4.53;;;24.20;99.90;;;;;;7384169;19;20593;-75
2023/06/22 06:16:29;;;;;;;8.15;4.78;;;24.30;99.90;;;;;;7383140;19;20150;-76
2023/06/22 06:18:55;;;;;;;6.43;4.13;;;24.60;99.90;;;;;;7380020;19;20134;-75
2023/06/22 06:21:22;;;;;;;5.15;4.03;;;24.90;99.90;;;;;;7381001;19;20139;-76
2023/06/22 06:23:47;;;;;;;5.25;4.10;;;25.70;99.90;;;;;;7380398;19;20498;-75
2023/06/22 06:26:16;;;;;;;6.45;4.82;;;26.80;99.90;;;;;;7386619;19;20140;-76
2023/06/22 06:28:42;;;;;;;6.30;4.55;;;27.70;99.90;;;;;;7384469;19;20131;-76
2023/06/22 06:31:08;;;;;;;7.32;4.60;;;28.30;99.90;;;;;;7379289;19;20142;-76
2023/06/22 06:33:35;;;;;;;6.57;4.40;;;29.10;99.90;;;;;;7384929;19;20145;-80
2023/06/22 06:36:03;;;;;;;9.90;4.65;;;30.00;99.90;;;;;;7389397;19;20162;-78
2023/06/22 06:38:31;;;;;;;5.65;4.07;;;30.30;99.90;;;;;;7390918;19;20143;-78
2023/06/22 06:40:58;;;;;;;6.93;4.18;;;30.60;99.90;;;;;;7389543;19;20140;-78
2023/06/22 06:43:24;;;;;;;6.13;3.90;;;31.00;99.90;;;;;;7388752;19;20131;-77
2023/06/22 06:45:50;;;;;;;5.15;4.05;;;31.50;99.90;;;;;;7389913;19;20261;-78
2023/06/22 06:48:17;;;;;;;5.38;4.35;;;32.00;99.90;;;;;;7391577;19;20138;-78
2023/06/22 06:50:43;;;;;;;5.32;4.20;;;32.20;99.90;;;;;;7389442;19;20209;-79
2023/06/22 06:53:09;;;;;;;5.43;4.15;;;32.20;99.90;;;;;;7389416;19;20583;-79
2023/06/22 06:55:35;;;;;;;5.45;4.30;;;32.10;99.90;;;;;;7390103;19;20171;-79
2023/06/22 06:58:04;;;;;;;5.55;3.90;;;31.80;99.90;;;;;;7388400;19;20134;-79
2023/06/22 07:00:29;;;;;;;4.50;3.60;;;32.00;99.90;;;;;;7390219;19;20134;-78
2023/06/22 07:02:55;;;;;;;4.80;3.70;;;32.30;99.90;;;;;;7389915;19;20153;-79
2023/06/22 07:05:21;;;;;;;7.18;3.75;;;32.10;99.90;;;;;;7389468;19;20135;-80
2023/06/22 07:07:47;;;;;;;5.57;3.60;;;32.00;99.90;;;;;;7389076;19;20138;-79
2023/06/22 07:10:12;;;;;;;4.88;4.13;;;31.80;99.90;;;;;;7390845;19;20158;-78
2023/06/22 07:12:38;;;;;;;7.85;4.13;;;31.70;99.90;;;;;;7390710;19;20134;-77
2023/06/22 07:15:07;;;;;;;7.60;4.00;;;31.60;99.90;;;;;;7392651;19;20575;-79
2023/06/22 07:17:34;;;;;;;5.25;4.00;;;31.20;99.90;;;;;;7390351;19;20175;-79
2023/06/22 07:20:01;;;;;;;4.00;3.60;;;30.70;99.90;;;;;;7389624;19;20149;-78
2023/06/22 07:22:26;;;;;;;5.65;4.40;;;30.60;99.90;;;;;;7389528;19;20138;-78
2023/06/22 07:24:52;;;;;;;4.55;3.92;;;30.50;99.90;;;;;;7390289;19;20146;-77
2023/06/22 07:27:19;;;;;;;8.25;3.72;;;30.50;99.90;;;;;;7388363;19;20149;-78
2023/06/22 07:29:45;;;;;;;4.38;3.83;;;30.50;99.90;;;;;;7389885;19;20626;-78
2023/06/22 07:32:11;;;;;;;4.50;3.80;;;30.90;99.90;;;;;;7390371;19;20135;-78
2023/06/22 07:34:36;;;;;;;6.18;3.70;;;31.20;99.90;;;;;;7388420;19;20157;-78
2023/06/22 07:37:03;;;;;;;6.63;3.80;;;31.00;99.90;;;;;;7387880;19;20149;-78
2023/06/22 07:39:28;;;;;;;7.15;4.00;;;30.80;99.90;;;;;;7388039;19;20154;-79
2023/06/22 07:41:54;;;;;;;5.10;3.90;;;30.70;99.90;;;;;;7388777;19;20164;-79
2023/06/22 07:44:20;;;;;;;5.35;3.75;;;30.60;99.90;;;;;;7389175;19;20139;-77
2023/06/22 07:46:46;;;;;;;4.82;3.60;;;30.50;99.90;;;;;;7384818;19;20294;-77
2023/06/22 07:49:12;;;;;;;4.47;3.33;;;30.60;99.90;;;;;;7388355;19;20202;-77
2023/06/22 07:51:38;;;;;;;4.80;3.53;;;30.60;99.90;;;;;;7389178;19;20139;-78
2023/06/22 07:54:07;;;;;;;5.07;3.88;;;30.40;99.90;;;;;;7390643;19;20134;-78
2023/06/22 07:56:33;;;;;;;6.25;4.10;;;30.40;99.90;;;;;;7386543;19;20169;-78
2023/06/22 07:59:00;;;;;;;10.70;3.42;;;30.50;99.90;;;;;;7390014;19;20201;-78
2023/06/22 08:01:26;;;;;;;6.50;3.85;;;30.40;99.90;;;;;;7390174;19;20570;-77
2023/06/22 08:03:52;;;;;;;5.60;3.40;;;30.70;99.90;;;;;;7389442;19;20130;-77
2023/06/22 08:06:18;;;;;;;6.10;4.00;;;30.70;99.90;;;;;;7385921;19;20158;-77
2023/06/22 08:08:43;;;;;;;6.40;4.18;;;30.60;99.90;;;;;;7394127;19;20130;-78
2023/06/22 08:11:09;;;;;;;6.45;3.85;;;30.40;99.90;;;;;;7388203;19;20135;-78
2023/06/22 08:13:35;;;;;;;5.15;3.67;;;30.60;99.90;;;;;;7388737;19;20130;-77
2023/06/22 08:16:01;;;;;;;4.88;4.00;;;30.40;99.90;;;;;;7386429;19;20141;-77
2023/06/22 08:18:28;;;;;;;5.07;3.90;;;30.10;99.90;;;;;;7389184;19;20519;-76
2023/06/22 08:20:53;;;;;;;5.10;3.70;;;30.00;99.90;;;;;;7390934;19;20607;-77
2023/06/22 08:23:19;;;;;;;6.32;3.88;;;30.40;99.90;;;;;;7385616;19;20135;-77
2023/06/22 08:25:45;;;;;;;5.32;3.72;;;30.30;99.90;;;;;;7386847;19;20138;-76
2023/06/22 08:28:12;;;;;;;5.47;4.05;;;30.00;99.90;;;;;;7390171;19;20126;-76
2023/06/22 08:30:39;;;;;;;6.00;3.88;;;29.40;99.90;;;;;;7387899;19;20176;-76
2023/06/22 08:33:04;;;;;;;5.68;3.53;;;29.10;99.90;;;;;;7387660;19;20134;-76
2023/06/22 08:35:30;;;;;;;6.30;3.95;;;28.50;99.90;;;;;;7386879;19;20139;-75
2023/06/22 08:37:56;;;;;;;8.70;3.95;;;28.30;99.90;;;;;;7387606;19;20155;-75
2023/06/22 08:40:22;;;;;;;4.90;3.80;;;28.30;99.90;;;;;;7386778;19;20147;-75
2023/06/22 08:42:49;;;;;;;6.22;3.95;;;28.60;99.90;;;;;;7386650;19;20138;-76
2023/06/22 08:45:15;;;;;;;6.93;3.70;;;28.90;99.90;;;;;;7387982;19;20158;-76
2023/06/22 08:47:42;;;;;;;4.53;3.30;;;29.10;99.90;;;;;;7387524;19;20602;-74
2023/06/22 08:50:09;;;;;;;4.50;3.50;;;29.30;99.90;;;;;;7386624;19;20618;-79
2023/06/22 08:52:36;;;;;;;6.47;3.63;;;29.50;99.90;;;;;;7388114;19;20165;-79
2023/06/22 08:55:02;;;;;;;5.78;3.72;;;29.30;99.90;;;;;;7386483;19;20142;-80
2023/06/22 08:57:28;;;;;;;8.77;3.97;;;29.20;99.90;;;;;;7384572;19;20131;-78
2023/06/22 08:59:58;;;;;;;8.45;3.30;;;29.40;99.90;;;;;;7386568;19;20209;-78
2023/06/22 09:02:24;;;;;;;7.65;3.65;;;29.50;99.90;;;;;;7384174;19;21178;-79
2023/06/22 09:04:55;;;;;;;5.65;3.53;;;29.80;99.90;;;;;;7388750;19;20138;-79
2023/06/22 09:07:23;;;;;;;6.53;3.80;;;30.00;99.90;;;;;;7384804;19;20141;-78
2023/06/22 09:09:49;;;;;;;6.18;3.40;;;29.80;99.90;;;;;;7385934;19;20624;-78
2023/06/22 09:12:15;;;;;;;5.82;3.42;;;29.80;99.90;;;;;;7387317;19;20135;-78
2023/06/22 09:14:40;;;;;;;6.30;3.50;;;29.60;99.90;;;;;;7380277;19;20131;-79
2023/06/22 09:17:06;;;;;;;7.65;4.20;;;29.50;99.90;;;;;;7385700;19;20205;-79
2023/06/22 09:19:32;;;;;;;6.22;4.35;;;29.60;99.90;;;;;;7384493;19;20131;-78
2023/06/22 09:21:59;;;;;;;7.05;3.67;;;29.70;99.90;;;;;;7386142;19;20141;-78
2023/06/22 09:24:25;;;;;;;8.38;3.75;;;30.00;99.90;;;;;;7388037;19;20134;-80
2023/06/22 09:26:51;;;;;;;7.32;4.63;;;30.40;99.90;;;;;;7381658;19;20123;-80
2023/06/22 09:29:16;;;;;;;5.10;3.53;;;30.70;99.90;;;;;;7386530;19;20135;-79
2023/06/22 09:31:42;;;;;;;6.75;3.60;;;30.70;99.90;;;;;;7387366;19;20146;-80
2023/06/22 09:34:08;;;;;;;7.15;4.25;;;30.80;99.90;;;;;;7389074;19;20460;-80
2023/06/22 09:36:34;;;;;;;5.57;3.72;;;31.00;99.90;;;;;;7383580;19;20130;-77
2023/06/22 09:39:05;;;;;;;7.85;4.70;;;30.90;99.90;;;;;;7385649;19;20138;-80
2023/06/22 09:41:36;;;;;;;6.47;4.18;;;30.90;99.90;;;;;;7386220;19;20135;-78
2023/06/22 09:44:02;;;;;;;9.35;4.68;;;31.00;99.90;;;;;;7381827;19;20151;-78
2023/06/22 09:46:28;;;;;;;9.52;6.45;;;31.10;99.90;;;;;;7381939;19;20153;-81
2023/06/22 09:48:54;;;;;;;7.07;5.13;;;31.20;99.90;;;;;;7385565;19;20214;-80
2023/06/22 09:51:21;;;;;;;6.05;4.88;;;31.30;99.90;;;;;;7384941;19;20152;-80
2023/06/22 09:53:47;;;;;;;8.90;4.32;;;31.40;99.90;;;;;;7386137;19;20581;-79
2023/06/22 09:56:15;;;;;;;7.13;4.22;;;31.30;99.90;;;;;;7381201;19;20143;-79
2023/06/22 09:58:46;;;;;;;6.88;4.22;;;31.20;99.90;;;;;;7385200;19;20519;-78
2023/06/22 10:01:13;;;;;;;5.10;3.60;;;31.30;99.90;;;;;;7384807;19;20139;-80
2023/06/22 10:03:41;;;;;;;7.95;4.40;;;31.20;99.90;;;;;;7383304;19;20482;-80
2023/06/22 10:06:07;;;;;;;9.93;4.57;;;31.20;99.90;;;;;;7386442;19;20158;-80
2023/06/22 10:08:33;;;;;;;7.82;4.00;;;31.10;99.90;;;;;;7387751;19;20138;-80
2023/06/22 10:11:00;;;;;;;8.98;4.32;;;30.90;99.90;;;;;;7391297;19;20131;-80
2023/06/22 10:13:26;;;;;;;9.25;4.13;;;30.70;99.90;;;;;;7393317;19;20638;-79
2023/06/22 10:15:53;;;;;;;5.75;3.67;;;30.60;99.90;;;;;;7387953;19;20238;-78
2023/06/22 10:18:18;;;;;;;8.75;4.43;;;30.10;99.90;;;;;;7391032;19;20146;-79
2023/06/22 10:20:52;;;;;;;6.25;3.92;;;30.20;99.90;;;;;;7391740;19;20138;-78
2023/06/22 10:23:21;;;;;;;8.45;3.83;;;30.20;99.90;;;;;;7390795;19;20143;-78
2023/06/22 10:25:48;;;;;;;7.55;4.95;;;30.30;99.90;;;;;;7390163;19;20206;-79
2023/06/22 10:28:14;;;;;;;8.38;3.95;;;30.30;99.90;;;;;;7387670;19;20142;-77
2023/06/22 10:30:41;;;;;;;6.07;3.53;;;30.60;99.90;;;;;;7390061;19;20139;-79
2023/06/22 10:33:08;;;;;;;8.68;5.05;;;30.60;99.90;;;;;;7390005;19;20142;-79
2023/06/22 10:35:34;;;;;;;11.90;4.38;;;30.70;99.90;;;;;;7388092;19;20143;-79
2023/06/22 10:38:00;;;;;;;8.43;4.20;;;30.70;99.90;;;;;;7389553;19;20138;-80
2023/06/22 10:40:27;;;;;;;7.25;4.32;;;30.80;99.90;;;;;;7391501;19;20150;-80
2023/06/22 10:42:52;;;;;;;12.07;5.40;;;30.70;99.90;;;;;;7390972;19;20258;-80
2023/06/22 10:45:18;;;;;;;8.77;5.28;;;30.90;99.90;;;;;;7389970;19;20844;-80
2023/06/22 10:47:44;;;;;;;12.00;4.57;;;31.10;99.90;;;;;;7392027;19;20135;-80
2023/06/22 10:50:11;;;;;;;7.22;4.50;;;31.10;99.90;;;;;;7392033;19;20138;-80
2023/06/22 10:52:37;;;;;;;9.80;4.20;;;31.00;99.90;;;;;;7391464;19;20135;-80
2023/06/22 10:55:04;;;;;;;9.48;4.70;;;31.00;99.90;;;;;;7388075;19;20147;-82
2023/06/22 10:57:30;;;;;;;7.38;4.05;;;31.20;99.90;;;;;;7388116;19;20448;-81
2023/06/22 10:59:55;;;;;;;9.18;4.38;;;31.00;99.90;;;;;;7391282;19;20130;-81
2023/06/22 11:02:21;;;;;;;6.78;4.53;;;30.90;99.90;;;;;;7390064;19;20202;-81
2023/06/22 11:04:47;;;;;;;6.82;4.13;;;30.90;99.90;;;;;;7389234;19;20137;-81
2023/06/22 11:07:13;;;;;;;8.00;3.63;;;30.90;99.90;;;;;;7388488;19;20161;-81
2023/06/22 11:09:39;;;;;;;9.48;3.95;;;30.70;99.90;;;;;;7393983;19;20143;-80
2023/06/22 11:12:06;;;;;;;6.88;3.70;;;30.70;99.90;;;;;;7385471;19;20130;-79
2023/06/22 11:14:35;;;;;;;5.20;3.28;;;30.70;99.90;;;;;;7388422;19;20173;-79
2023/06/22 11:17:01;;;;;;;6.68;4.40;;;30.70;99.90;;;;;;7387810;19;20150;-79
2023/06/22 11:19:27;;;;;;;10.10;4.90;;;30.70;99.90;;;;;;7388854;19;20161;-78
2023/06/22 11:21:53;;;;;;;9.68;4.95;;;30.60;99.90;;;;;;7382079;19;20150;-79
2023/06/22 11:24:19;;;;;;;8.43;5.28;;;30.70;99.90;;;;;;7386440;19;20239;-79
2023/06/22 11:26:45;;;;;;;14.05;6.63;;;30.60;99.90;;;;;;7387962;19;20126;-79
2023/06/22 11:29:11;;;;;;;11.52;4.00;;;30.60;99.90;;;;;;7391036;19;20142;-80
2023/06/22 11:31:37;;;;;;;5.57;3.75;;;30.40;99.90;;;;;;7386616;19;20629;-80
2023/06/22 11:34:03;;;;;;;7.20;4.82;;;30.40;99.90;;;;;;7386142;19;20137;-80
2023/06/22 11:36:32;;;;;;;9.80;5.43;;;30.30;99.90;;;;;;7390829;19;20595;-81
2023/06/22 11:38:58;;;;;;;8.60;4.82;;;30.40;99.90;;;;;;7387950;19;20139;-80
2023/06/22 11:41:24;;;;;;;9.88;4.88;;;30.40;99.90;;;;;;7389069;19;20158;-79
2023/06/22 11:43:50;;;;;;;8.68;4.18;;;30.70;99.90;;;;;;7387176;19;20198;-79
2023/06/22 11:46:15;;;;;;;6.90;4.13;;;30.80;99.90;;;;;;7390278;19;20214;-80
2023/06/22 11:48:41;;;;;;;8.57;4.28;;;30.90;99.90;;;;;;7390275;19;20508;-80
2023/06/22 11:51:07;;;;;;;23.55;18.20;;;30.90;99.90;;;;;;7388397;19;20138;-80
2023/06/22 11:53:34;;;;;;;22.38;14.68;;;31.00;99.90;;;;;;7389285;19;20161;-79
2023/06/22 11:56:01;;;;;;;13.70;7.05;;;30.90;99.90;;;;;;7389394;19;20155;-78
2023/06/22 11:58:27;;;;;;;13.43;7.40;;;30.80;99.90;;;;;;7388235;19;20131;-80
2023/06/22 12:00:53;;;;;;;18.23;11.45;;;30.70;99.90;;;;;;7386819;19;20142;-80
2023/06/22 12:03:21;;;;;;;7.63;4.25;;;30.50;99.90;;;;;;7391028;19;20146;-75
2023/06/22 12:05:47;;;;;;;9.20;4.38;;;30.60;99.90;;;;;;7390588;19;20138;-83
2023/06/22 12:08:13;;;;;;;11.23;5.03;;;30.70;99.90;;;;;;7395715;19;20417;-87
2023/06/22 12:10:42;;;;;;;7.32;3.88;;;30.60;99.90;;;;;;7394500;19;20480;-89
2023/06/22 12:13:11;;;;;;;7.20;3.67;;;30.50;99.90;;;;;;7397993;19;20127;-88
2023/06/22 12:15:37;;;;;;;7.03;4.32;;;30.60;99.90;;;;;;7396163;19;20146;-86
2023/06/22 12:18:04;;;;;;;8.77;4.35;;;30.70;99.90;;;;;;7393753;19;20167;-84
2023/06/22 12:20:30;;;;;;;9.25;4.13;;;30.60;99.90;;;;;;7395606;19;20138;-85
2023/06/22 12:22:58;;;;;;;7.38;4.15;;;30.70;99.90;;;;;;7390396;19;20612;-84
2023/06/22 12:25:26;;;;;;;7.43;4.40;;;30.60;99.90;;;;;;7387751;19;20138;-85
2023/06/22 12:27:55;;;;;;;6.72;4.30;;;30.60;99.90;;;;;;7394107;19;20146;-86
2023/06/22 12:30:20;;;;;;;6.35;4.20;;;30.50;99.90;;;;;;7389320;19;20152;-83
2023/06/22 12:32:46;;;;;;;5.10;3.53;;;30.50;99.90;;;;;;7386805;19;20154;-84
2023/06/22 12:35:13;;;;;;;5.95;4.00;;;30.60;99.90;;;;;;7390041;19;20149;-86
2023/06/22 12:37:41;;;;;;;5.45;3.30;;;30.60;99.90;;;;;;7388602;19;20149;-86
2023/06/22 12:40:07;;;;;;;11.30;4.45;;;30.70;99.90;;;;;;7385166;19;20198;-86
2023/06/22 12:42:33;;;;;;;5.72;3.53;;;30.60;99.90;;;;;;7385487;19;20173;-87
2023/06/22 12:44:59;;;;;;;5.88;3.95;;;30.50;99.90;;;;;;7389546;19;20571;-85